sensor_id;sensor_type;location;lat;lon;timestamp;P1;durP1;ratioP1;P2;durP2;ratioP2
21128;SDS011;10722;51.910;8.352;2023-04-01T00:00:51;7.30;;;2.03;;
21128;SDS011;10722;51.910;8.352;2023-04-01T00:03:37;7.63;;;1.97;;
21128;SDS011;10722;51.910;8.352;2023-04-01T00:06:23;8.13;;;2.20;;
21128;SDS011;10722;51.910;8.352;2023-04-01T00:09:09;11.83;;;2.33;;
21128;SDS011;10722;51.910;8.352;2023-04-01T00:11:54;9.10;;;2.17;;
21128;SDS011;10722;51.910;8.352;2023-04-01T00:14:39;8.03;;;1.90;;
21128;SDS011;10722;51.910;8.352;2023-04-01T00:17:24;6.30;;;1.83;;
21128;SDS011;10722;51.910;8.352;2023-04-01T00:20:10;6.87;;;1.90;;
21128;SDS011;10722;51.910;8.352;2023-04-01T00:22:55;10.07;;;2.17;;
21128;SDS011;10722;51.910;8.352;2023-04-01T00:25:41;9.10;;;1.90;;
21128;SDS011;10722;51.910;8.352;2023-04-01T00:28:27;7.27;;;1.90;;
21128;SDS011;10722;51.910;8.352;2023-04-01T00:31:12;8.63;;;1.97;;
21128;SDS011;10722;51.910;8.352;2023-04-01T00:33:58;8.50;;;1.87;;
21128;SDS011;10722;51.910;8.352;2023-04-01T00:36:43;9.13;;;1.77;;
21128;SDS011;10722;51.910;8.352;2023-04-01T00:39:29;8.80;;;2.23;;
21128;SDS011;10722;51.910;8.352;2023-04-01T00:42:15;4.17;;;1.53;;
21128;SDS011;10722;51.910;8.352;2023-04-01T00:45:21;7.50;;;1.60;;
21128;SDS011;10722;51.910;8.352;2023-04-01T00:48:10;8.67;;;2.00;;
21128;SDS011;10722;51.910;8.352;2023-04-01T00:51:01;7.60;;;1.77;;
21128;SDS011;10722;51.910;8.352;2023-04-01T00:53:58;5.37;;;1.63;;
21128;SDS011;10722;51.910;8.352;2023-04-01T00:56:47;7.67;;;1.90;;
21128;SDS011;10722;51.910;8.352;2023-04-01T00:59:39;7.10;;;1.70;;
21128;SDS011;10722;51.910;8.352;2023-04-01T01:02:27;8.00;;;1.53;;
21128;SDS011;10722;51.910;8.352;2023-04-01T01:05:14;7.27;;;1.60;;
21128;SDS011;10722;51.910;8.352;2023-04-01T01:08:02;6.97;;;1.53;;
21128;SDS011;10722;51.910;8.352;2023-04-01T01:11:08;5.93;;;1.50;;
21128;SDS011;10722;51.910;8.352;2023-04-01T01:13:58;8.57;;;1.47;;
21128;SDS011;10722;51.910;8.352;2023-04-01T01:16:55;6.07;;;1.50;;
21128;SDS011;10722;51.910;8.352;2023-04-01T01:32:43;8.50;;;1.77;;
21128;SDS011;10722;51.910;8.352;2023-04-01T01:35:40;5.87;;;1.40;;
21128;SDS011;10722;51.910;8.352;2023-04-01T01:38:29;2.87;;;1.20;;
21128;SDS011;10722;51.910;8.352;2023-04-01T01:41:18;7.57;;;1.60;;
21128;SDS011;10722;51.910;8.352;2023-04-01T01:44:09;8.00;;;1.40;;
21128;SDS011;10722;51.910;8.352;2023-04-01T01:47:00;7.03;;;1.47;;
21128;SDS011;10722;51.910;8.352;2023-04-01T01:49:46;6.83;;;1.40;;
21128;SDS011;10722;51.910;8.352;2023-04-01T01:52:31;6.50;;;1.40;;
21128;SDS011;10722;51.910;8.352;2023-04-01T01:55:24;5.67;;;1.50;;
21128;SDS011;10722;51.910;8.352;2023-04-01T02:01:05;6.47;;;1.30;;
21128;SDS011;10722;51.910;8.352;2023-04-01T02:03:53;4.73;;;1.30;;
21128;SDS011;10722;51.910;8.352;2023-04-01T02:06:42;7.40;;;1.67;;
21128;SDS011;10722;51.910;8.352;2023-04-01T02:09:35;4.80;;;1.27;;
21128;SDS011;10722;51.910;8.352;2023-04-01T02:12:20;4.83;;;1.33;;
21128;SDS011;10722;51.910;8.352;2023-04-01T02:15:09;5.20;;;1.20;;
21128;SDS011;10722;51.910;8.352;2023-04-01T02:17:57;6.07;;;1.03;;
21128;SDS011;10722;51.910;8.352;2023-04-01T02:20:42;6.27;;;1.40;;
21128;SDS011;10722;51.910;8.352;2023-04-01T02:23:29;6.70;;;1.17;;
21128;SDS011;10722;51.910;8.352;2023-04-01T02:26:15;5.10;;;1.10;;
21128;SDS011;10722;51.910;8.352;2023-04-01T02:29:01;4.53;;;1.20;;
21128;SDS011;10722;51.910;8.352;2023-04-01T02:31:50;3.30;;;1.20;;
21128;SDS011;10722;51.910;8.352;2023-04-01T02:34:36;5.43;;;1.00;;
21128;SDS011;10722;51.910;8.352;2023-04-01T02:37:22;5.93;;;1.13;;
21128;SDS011;10722;51.910;8.352;2023-04-01T02:40:08;3.73;;;0.80;;
21128;SDS011;10722;51.910;8.352;2023-04-01T02:42:59;3.63;;;0.90;;
21128;SDS011;10722;51.910;8.352;2023-04-01T02:45:44;3.27;;;1.10;;
21128;SDS011;10722;51.910;8.352;2023-04-01T02:48:29;5.77;;;1.00;;
21128;SDS011;10722;51.910;8.352;2023-04-01T02:51:15;5.17;;;1.03;;
21128;SDS011;10722;51.910;8.352;2023-04-01T02:54:02;3.23;;;0.90;;
21128;SDS011;10722;51.910;8.352;2023-04-01T02:56:48;3.80;;;1.00;;
21128;SDS011;10722;51.910;8.352;2023-04-01T02:59:33;6.53;;;1.13;;
21128;SDS011;10722;51.910;8.352;2023-04-01T03:02:19;5.17;;;0.90;;
21128;SDS011;10722;51.910;8.352;2023-04-01T03:05:04;5.00;;;1.13;;
21128;SDS011;10722;51.910;8.352;2023-04-01T03:07:50;2.37;;;1.37;;
21128;SDS011;10722;51.910;8.352;2023-04-01T03:10:35;3.50;;;1.10;;
21128;SDS011;10722;51.910;8.352;2023-04-01T03:13:21;10.00;;;1.73;;
21128;SDS011;10722;51.910;8.352;2023-04-01T03:16:06;9.10;;;1.40;;
21128;SDS011;10722;51.910;8.352;2023-04-01T03:18:51;7.67;;;1.63;;
21128;SDS011;10722;51.910;8.352;2023-04-01T03:21:37;3.93;;;1.20;;
21128;SDS011;10722;51.910;8.352;2023-04-01T03:24:22;4.47;;;1.10;;
21128;SDS011;10722;51.910;8.352;2023-04-01T03:27:07;3.03;;;1.03;;
21128;SDS011;10722;51.910;8.352;2023-04-01T03:29:53;2.33;;;1.10;;
21128;SDS011;10722;51.910;8.352;2023-04-01T03:32:38;5.00;;;1.30;;
21128;SDS011;10722;51.910;8.352;2023-04-01T03:35:23;4.43;;;1.17;;
21128;SDS011;10722;51.910;8.352;2023-04-01T03:38:09;3.33;;;0.93;;
21128;SDS011;10722;51.910;8.352;2023-04-01T03:40:54;4.23;;;0.87;;
21128;SDS011;10722;51.910;8.352;2023-04-01T03:43:39;4.57;;;1.10;;
21128;SDS011;10722;51.910;8.352;2023-04-01T03:46:25;4.37;;;1.33;;
21128;SDS011;10722;51.910;8.352;2023-04-01T03:49:10;2.70;;;1.20;;
21128;SDS011;10722;51.910;8.352;2023-04-01T03:51:56;4.83;;;1.20;;
21128;SDS011;10722;51.910;8.352;2023-04-01T03:54:42;4.07;;;1.30;;
21128;SDS011;10722;51.910;8.352;2023-04-01T03:57:27;3.23;;;1.27;;
21128;SDS011;10722;51.910;8.352;2023-04-01T04:00:13;4.87;;;1.10;;
21128;SDS011;10722;51.910;8.352;2023-04-01T04:02:58;3.97;;;1.20;;
21128;SDS011;10722;51.910;8.352;2023-04-01T04:05:48;4.03;;;1.07;;
21128;SDS011;10722;51.910;8.352;2023-04-01T04:08:34;3.77;;;1.00;;
21128;SDS011;10722;51.910;8.352;2023-04-01T04:11:20;4.50;;;1.10;;
21128;SDS011;10722;51.910;8.352;2023-04-01T04:14:06;3.10;;;0.97;;
21128;SDS011;10722;51.910;8.352;2023-04-01T04:16:51;4.63;;;1.20;;
21128;SDS011;10722;51.910;8.352;2023-04-01T04:19:37;6.37;;;1.00;;
21128;SDS011;10722;51.910;8.352;2023-04-01T04:22:22;4.23;;;1.10;;
21128;SDS011;10722;51.910;8.352;2023-04-01T04:25:07;5.77;;;1.27;;
21128;SDS011;10722;51.910;8.352;2023-04-01T04:27:53;6.97;;;1.40;;
21128;SDS011;10722;51.910;8.352;2023-04-01T04:30:39;6.30;;;1.27;;
21128;SDS011;10722;51.910;8.352;2023-04-01T04:33:24;3.50;;;1.07;;
21128;SDS011;10722;51.910;8.352;2023-04-01T04:36:10;3.83;;;1.20;;
21128;SDS011;10722;51.910;8.352;2023-04-01T04:38:55;5.23;;;1.20;;
21128;SDS011;10722;51.910;8.352;2023-04-01T04:41:41;4.57;;;1.10;;
21128;SDS011;10722;51.910;8.352;2023-04-01T04:44:26;2.13;;;0.90;;
21128;SDS011;10722;51.910;8.352;2023-04-01T04:47:11;3.90;;;1.00;;
21128;SDS011;10722;51.910;8.352;2023-04-01T04:49:56;4.70;;;1.10;;
21128;SDS011;10722;51.910;8.352;2023-04-01T04:52:42;2.27;;;1.10;;
21128;SDS011;10722;51.910;8.352;2023-04-01T04:55:27;3.70;;;1.30;;
21128;SDS011;10722;51.910;8.352;2023-04-01T04:58:12;5.23;;;1.50;;
21128;SDS011;10722;51.910;8.352;2023-04-01T05:00:58;7.20;;;1.50;;
21128;SDS011;10722;51.910;8.352;2023-04-01T05:03:43;5.33;;;1.40;;
21128;SDS011;10722;51.910;8.352;2023-04-01T05:06:29;5.93;;;1.30;;
21128;SDS011;10722;51.910;8.352;2023-04-01T05:09:15;2.23;;;1.40;;
21128;SDS011;10722;51.910;8.352;2023-04-01T05:12:00;4.00;;;1.50;;
21128;SDS011;10722;51.910;8.352;2023-04-01T05:14:45;3.67;;;1.60;;
21128;SDS011;10722;51.910;8.352;2023-04-01T05:17:31;3.13;;;1.70;;
21128;SDS011;10722;51.910;8.352;2023-04-01T05:20:16;4.50;;;1.50;;
21128;SDS011;10722;51.910;8.352;2023-04-01T05:23:01;5.00;;;1.57;;
21128;SDS011;10722;51.910;8.352;2023-04-01T05:25:47;1.30;;;1.10;;
21128;SDS011;10722;51.910;8.352;2023-04-01T05:28:33;4.47;;;1.37;;
21128;SDS011;10722;51.910;8.352;2023-04-01T05:31:18;2.83;;;1.33;;
21128;SDS011;10722;51.910;8.352;2023-04-01T05:34:04;4.70;;;1.40;;
21128;SDS011;10722;51.910;8.352;2023-04-01T05:36:49;3.20;;;1.30;;
21128;SDS011;10722;51.910;8.352;2023-04-01T05:39:38;3.67;;;1.50;;
21128;SDS011;10722;51.910;8.352;2023-04-01T05:42:23;3.17;;;1.40;;
21128;SDS011;10722;51.910;8.352;2023-04-01T05:45:08;3.23;;;1.50;;
21128;SDS011;10722;51.910;8.352;2023-04-01T05:47:54;6.77;;;1.40;;
21128;SDS011;10722;51.910;8.352;2023-04-01T05:50:40;4.30;;;1.37;;
21128;SDS011;10722;51.910;8.352;2023-04-01T05:53:25;5.40;;;1.60;;
21128;SDS011;10722;51.910;8.352;2023-04-01T05:56:10;3.37;;;1.20;;
21128;SDS011;10722;51.910;8.352;2023-04-01T05:58:56;4.80;;;1.30;;
21128;SDS011;10722;51.910;8.352;2023-04-01T06:01:41;4.80;;;1.43;;
21128;SDS011;10722;51.910;8.352;2023-04-01T06:04:28;6.27;;;1.70;;
21128;SDS011;10722;51.910;8.352;2023-04-01T06:07:20;4.67;;;1.40;;
21128;SDS011;10722;51.910;8.352;2023-04-01T06:10:10;8.27;;;1.50;;
21128;SDS011;10722;51.910;8.352;2023-04-01T06:13:04;4.37;;;1.30;;
21128;SDS011;10722;51.910;8.352;2023-04-01T06:19:02;5.30;;;1.50;;
21128;SDS011;10722;51.910;8.352;2023-04-01T06:31:36;4.63;;;2.10;;
21128;SDS011;10722;51.910;8.352;2023-04-01T06:40:41;9.10;;;2.80;;
21128;SDS011;10722;51.910;8.352;2023-04-01T06:56:16;8.80;;;2.20;;
21128;SDS011;10722;51.910;8.352;2023-04-01T06:59:05;5.50;;;2.10;;
21128;SDS011;10722;51.910;8.352;2023-04-01T07:02:01;6.47;;;2.30;;
21128;SDS011;10722;51.910;8.352;2023-04-01T07:05:01;10.00;;;2.40;;
21128;SDS011;10722;51.910;8.352;2023-04-01T07:07:49;5.57;;;2.50;;
21128;SDS011;10722;51.910;8.352;2023-04-01T07:13:51;6.27;;;2.50;;
21128;SDS011;10722;51.910;8.352;2023-04-01T07:16:41;7.30;;;2.60;;
21128;SDS011;10722;51.910;8.352;2023-04-01T07:25:20;6.70;;;2.60;;
21128;SDS011;10722;51.910;8.352;2023-04-01T07:28:13;5.80;;;2.30;;
21128;SDS011;10722;51.910;8.352;2023-04-01T07:34:08;7.10;;;3.00;;
21128;SDS011;10722;51.910;8.352;2023-04-01T07:37:06;6.93;;;2.43;;
21128;SDS011;10722;51.910;8.352;2023-04-01T07:54:59;7.87;;;2.20;;
21128;SDS011;10722;51.910;8.352;2023-04-01T08:00:59;10.13;;;3.23;;
21128;SDS011;10722;51.910;8.352;2023-04-01T08:04:05;5.03;;;2.00;;
21128;SDS011;10722;51.910;8.352;2023-04-01T08:07:02;4.90;;;1.73;;
21128;SDS011;10722;51.910;8.352;2023-04-01T08:10:00;4.43;;;1.80;;
21128;SDS011;10722;51.910;8.352;2023-04-01T08:22:03;6.63;;;2.00;;
21128;SDS011;10722;51.910;8.352;2023-04-01T08:24:56;6.30;;;2.30;;
21128;SDS011;10722;51.910;8.352;2023-04-01T08:27:49;6.47;;;2.10;;
21128;SDS011;10722;51.910;8.352;2023-04-01T08:30:52;6.20;;;2.10;;
21128;SDS011;10722;51.910;8.352;2023-04-01T08:33:42;6.00;;;2.30;;
21128;SDS011;10722;51.910;8.352;2023-04-01T08:36:35;5.53;;;2.40;;
21128;SDS011;10722;51.910;8.352;2023-04-01T08:42:46;7.77;;;2.50;;
21128;SDS011;10722;51.910;8.352;2023-04-01T08:46:07;5.77;;;2.60;;
21128;SDS011;10722;51.910;8.352;2023-04-01T08:49:36;7.93;;;2.80;;
21128;SDS011;10722;51.910;8.352;2023-04-01T08:52:35;6.47;;;2.30;;
21128;SDS011;10722;51.910;8.352;2023-04-01T09:16:42;6.10;;;2.33;;
21128;SDS011;10722;51.910;8.352;2023-04-01T09:19:43;7.43;;;2.30;;
21128;SDS011;10722;51.910;8.352;2023-04-01T09:35:16;6.93;;;2.43;;
21128;SDS011;10722;51.910;8.352;2023-04-01T09:38:26;7.27;;;2.60;;
21128;SDS011;10722;51.910;8.352;2023-04-01T09:41:31;4.83;;;1.80;;
21128;SDS011;10722;51.910;8.352;2023-04-01T09:44:25;3.57;;;1.80;;
21128;SDS011;10722;51.910;8.352;2023-04-01T10:18:33;5.00;;;2.67;;
21128;SDS011;10722;51.910;8.352;2023-04-01T10:40:44;5.13;;;2.50;;
21128;SDS011;10722;51.910;8.352;2023-04-01T10:43:46;5.70;;;2.17;;
21128;SDS011;10722;51.910;8.352;2023-04-01T10:49:41;5.50;;;2.83;;
21128;SDS011;10722;51.910;8.352;2023-04-01T10:52:39;6.87;;;2.30;;
21128;SDS011;10722;51.910;8.352;2023-04-01T10:55:37;6.13;;;2.40;;
21128;SDS011;10722;51.910;8.352;2023-04-01T11:17:18;6.93;;;2.83;;
21128;SDS011;10722;51.910;8.352;2023-04-01T11:20:24;5.60;;;2.90;;
21128;SDS011;10722;51.910;8.352;2023-04-01T11:42:20;4.57;;;2.00;;
21128;SDS011;10722;51.910;8.352;2023-04-01T11:45:24;5.00;;;2.30;;
21128;SDS011;10722;51.910;8.352;2023-04-01T11:51:11;6.90;;;2.80;;
21128;SDS011;10722;51.910;8.352;2023-04-01T12:25:29;6.20;;;2.93;;
21128;SDS011;10722;51.910;8.352;2023-04-01T12:28:35;6.83;;;2.90;;
21128;SDS011;10722;51.910;8.352;2023-04-01T12:34:33;10.30;;;3.40;;
21128;SDS011;10722;51.910;8.352;2023-04-01T12:50:08;10.83;;;4.53;;
21128;SDS011;10722;51.910;8.352;2023-04-01T12:56:09;12.23;;;5.63;;
21128;SDS011;10722;51.910;8.352;2023-04-01T13:02:13;13.13;;;6.30;;
21128;SDS011;10722;51.910;8.352;2023-04-01T13:20:41;11.90;;;5.27;;
21128;SDS011;10722;51.910;8.352;2023-04-01T13:24:03;11.50;;;4.93;;
21128;SDS011;10722;51.910;8.352;2023-04-01T13:26:55;12.53;;;5.30;;
21128;SDS011;10722;51.910;8.352;2023-04-01T13:33:02;11.13;;;5.07;;
21128;SDS011;10722;51.910;8.352;2023-04-01T13:35:56;11.40;;;5.20;;
21128;SDS011;10722;51.910;8.352;2023-04-01T13:44:48;13.17;;;6.00;;
21128;SDS011;10722;51.910;8.352;2023-04-01T14:15:18;13.13;;;6.10;;
21128;SDS011;10722;51.910;8.352;2023-04-01T14:24:32;11.33;;;5.40;;
21128;SDS011;10722;51.910;8.352;2023-04-01T14:27:33;12.43;;;5.77;;
21128;SDS011;10722;51.910;8.352;2023-04-01T14:30:27;11.17;;;5.43;;
21128;SDS011;10722;51.910;8.352;2023-04-01T14:33:31;11.23;;;5.80;;
21128;SDS011;10722;51.910;8.352;2023-04-01T14:49:48;10.83;;;4.60;;
21128;SDS011;10722;51.910;8.352;2023-04-01T14:52:42;9.47;;;4.63;;
21128;SDS011;10722;51.910;8.352;2023-04-01T14:55:48;10.70;;;4.50;;
21128;SDS011;10722;51.910;8.352;2023-04-01T14:58:46;11.70;;;4.90;;
21128;SDS011;10722;51.910;8.352;2023-04-01T15:16:31;12.87;;;6.50;;
21128;SDS011;10722;51.910;8.352;2023-04-01T15:19:30;14.00;;;7.70;;
21128;SDS011;10722;51.910;8.352;2023-04-01T15:25:35;15.23;;;7.83;;
21128;SDS011;10722;51.910;8.352;2023-04-01T15:28:36;13.60;;;7.23;;
21128;SDS011;10722;51.910;8.352;2023-04-01T15:37:31;14.17;;;8.37;;
21128;SDS011;10722;51.910;8.352;2023-04-01T15:43:49;14.53;;;8.17;;
21128;SDS011;10722;51.910;8.352;2023-04-01T15:46:46;14.30;;;8.33;;
21128;SDS011;10722;51.910;8.352;2023-04-01T15:55:24;17.20;;;9.37;;
21128;SDS011;10722;51.910;8.352;2023-04-01T16:01:43;14.13;;;8.03;;
21128;SDS011;10722;51.910;8.352;2023-04-01T16:10:36;10.40;;;4.67;;
21128;SDS011;10722;51.910;8.352;2023-04-01T16:16:48;10.83;;;5.10;;
21128;SDS011;10722;51.910;8.352;2023-04-01T16:20:12;13.60;;;6.80;;
21128;SDS011;10722;51.910;8.352;2023-04-01T16:23:08;17.27;;;7.80;;
21128;SDS011;10722;51.910;8.352;2023-04-01T16:26:05;17.50;;;8.83;;
21128;SDS011;10722;51.910;8.352;2023-04-01T16:38:26;21.77;;;12.80;;
21128;SDS011;10722;51.910;8.352;2023-04-01T16:41:26;18.87;;;11.30;;
21128;SDS011;10722;51.910;8.352;2023-04-01T16:44:26;18.80;;;12.17;;
21128;SDS011;10722;51.910;8.352;2023-04-01T16:47:14;20.00;;;12.30;;
21128;SDS011;10722;51.910;8.352;2023-04-01T16:50:24;19.80;;;12.20;;
21128;SDS011;10722;51.910;8.352;2023-04-01T16:56:49;23.07;;;15.93;;
21128;SDS011;10722;51.910;8.352;2023-04-01T17:02:43;26.07;;;15.87;;
21128;SDS011;10722;51.910;8.352;2023-04-01T17:11:43;32.73;;;19.60;;
21128;SDS011;10722;51.910;8.352;2023-04-01T17:17:45;22.73;;;15.27;;
21128;SDS011;10722;51.910;8.352;2023-04-01T17:20:36;22.23;;;15.18;;
21128;SDS011;10722;51.910;8.352;2023-04-01T17:33:23;25.57;;;14.97;;
21128;SDS011;10722;51.910;8.352;2023-04-01T17:51:52;14.03;;;6.67;;
21128;SDS011;10722;51.910;8.352;2023-04-01T17:54:50;10.97;;;4.47;;
21128;SDS011;10722;51.910;8.352;2023-04-01T18:03:54;11.37;;;4.40;;
21128;SDS011;10722;51.910;8.352;2023-04-01T18:07:05;12.87;;;5.47;;
21128;SDS011;10722;51.910;8.352;2023-04-01T18:18:57;15.80;;;7.33;;
21128;SDS011;10722;51.910;8.352;2023-04-01T18:21:49;14.70;;;7.67;;
21128;SDS011;10722;51.910;8.352;2023-04-01T18:25:22;11.83;;;4.70;;
21128;SDS011;10722;51.910;8.352;2023-04-01T18:28:11;9.47;;;3.43;;
21128;SDS011;10722;51.910;8.352;2023-04-01T18:37:00;5.67;;;2.50;;
21128;SDS011;10722;51.910;8.352;2023-04-01T18:40:10;8.00;;;3.10;;
21128;SDS011;10722;51.910;8.352;2023-04-01T18:45:57;6.47;;;2.97;;
21128;SDS011;10722;51.910;8.352;2023-04-01T18:55:35;5.30;;;2.70;;
21128;SDS011;10722;51.910;8.352;2023-04-01T18:58:26;6.90;;;3.20;;
21128;SDS011;10722;51.910;8.352;2023-04-01T19:19:24;5.80;;;2.80;;
21128;SDS011;10722;51.910;8.352;2023-04-01T19:34:46;6.23;;;2.63;;
21128;SDS011;10722;51.910;8.352;2023-04-01T19:37:39;7.97;;;3.40;;
21128;SDS011;10722;51.910;8.352;2023-04-01T19:40:42;6.10;;;2.70;;
21128;SDS011;10722;51.910;8.352;2023-04-01T19:50:09;5.83;;;2.60;;
21128;SDS011;10722;51.910;8.352;2023-04-01T19:53:07;5.97;;;2.30;;
21128;SDS011;10722;51.910;8.352;2023-04-01T19:59:33;6.27;;;2.83;;
21128;SDS011;10722;51.910;8.352;2023-04-01T20:02:30;9.57;;;4.43;;
21128;SDS011;10722;51.910;8.352;2023-04-01T20:15:44;9.63;;;4.27;;
21128;SDS011;10722;51.910;8.352;2023-04-01T20:18:45;11.47;;;5.40;;
21128;SDS011;10722;51.910;8.352;2023-04-01T20:24:41;11.63;;;5.57;;
21128;SDS011;10722;51.910;8.352;2023-04-01T20:27:31;13.10;;;6.10;;
21128;SDS011;10722;51.910;8.352;2023-04-01T20:33:56;12.60;;;5.50;;
21128;SDS011;10722;51.910;8.352;2023-04-01T20:45:45;14.10;;;5.83;;
21128;SDS011;10722;51.910;8.352;2023-04-01T20:52:29;12.60;;;6.27;;
21128;SDS011;10722;51.910;8.352;2023-04-01T21:02:28;8.37;;;3.83;;
21128;SDS011;10722;51.910;8.352;2023-04-01T21:05:35;7.87;;;3.43;;
21128;SDS011;10722;51.910;8.352;2023-04-01T21:15:21;5.70;;;2.87;;
21128;SDS011;10722;51.910;8.352;2023-04-01T21:24:35;11.23;;;4.60;;
21128;SDS011;10722;51.910;8.352;2023-04-01T21:38:52;9.13;;;4.20;;
21128;SDS011;10722;51.910;8.352;2023-04-01T22:06:10;8.83;;;4.23;;
21128;SDS011;10722;51.910;8.352;2023-04-01T22:09:05;11.30;;;5.17;;
21128;SDS011;10722;51.910;8.352;2023-04-01T22:12:07;9.10;;;4.00;;
21128;SDS011;10722;51.910;8.352;2023-04-01T22:15:08;11.10;;;4.87;;
21128;SDS011;10722;51.910;8.352;2023-04-01T22:18:09;13.93;;;6.97;;
21128;SDS011;10722;51.910;8.352;2023-04-01T22:21:12;15.37;;;7.97;;
21128;SDS011;10722;51.910;8.352;2023-04-01T22:24:17;14.40;;;7.20;;
21128;SDS011;10722;51.910;8.352;2023-04-01T22:30:42;12.13;;;5.60;;
21128;SDS011;10722;51.910;8.352;2023-04-01T22:36:48;13.83;;;6.73;;
21128;SDS011;10722;51.910;8.352;2023-04-01T22:46:01;12.10;;;5.70;;
21128;SDS011;10722;51.910;8.352;2023-04-01T22:48:57;10.00;;;4.67;;
21128;SDS011;10722;51.910;8.352;2023-04-01T22:54:50;12.90;;;5.57;;
21128;SDS011;10722;51.910;8.352;2023-04-01T22:57:41;12.53;;;6.07;;
21128;SDS011;10722;51.910;8.352;2023-04-01T23:00:43;13.00;;;6.53;;
21128;SDS011;10722;51.910;8.352;2023-04-01T23:03:33;12.83;;;5.70;;
21128;SDS011;10722;51.910;8.352;2023-04-01T23:06:25;11.90;;;5.77;;
21128;SDS011;10722;51.910;8.352;2023-04-01T23:09:25;12.30;;;6.03;;
21128;SDS011;10722;51.910;8.352;2023-04-01T23:12:13;12.87;;;5.80;;
21128;SDS011;10722;51.910;8.352;2023-04-01T23:15:02;12.73;;;6.13;;
21128;SDS011;10722;51.910;8.352;2023-04-01T23:21:11;11.17;;;5.27;;
21128;SDS011;10722;51.910;8.352;2023-04-01T23:24:41;11.30;;;5.20;;
21128;SDS011;10722;51.910;8.352;2023-04-01T23:28:19;12.60;;;5.40;;
21128;SDS011;10722;51.910;8.352;2023-04-01T23:30:53;9.50;;;4.30;;
21128;SDS011;10722;51.910;8.352;2023-04-01T23:33:39;10.60;;;4.50;;
21128;SDS011;10722;51.910;8.352;2023-04-01T23:36:25;9.53;;;4.27;;
21128;SDS011;10722;51.910;8.352;2023-04-01T23:39:19;8.77;;;4.20;;
21128;SDS011;10722;51.910;8.352;2023-04-01T23:42:15;9.53;;;4.00;;
21128;SDS011;10722;51.910;8.352;2023-04-01T23:45:16;11.30;;;4.67;;
21128;SDS011;10722;51.910;8.352;2023-04-01T23:48:03;10.53;;;3.80;;
21128;SDS011;10722;51.910;8.352;2023-04-01T23:50:50;10.47;;;4.27;;
21128;SDS011;10722;51.910;8.352;2023-04-01T23:53:36;9.40;;;4.13;;
21128;SDS011;10722;51.910;8.352;2023-04-01T23:56:48;10.83;;;4.13;;
21128;SDS011;10722;51.910;8.352;2023-04-01T23:59:37;10.23;;;4.17;;
